createdAt,value
2018-04-15T00:00:06.960Z,74.52
2018-04-15T00:01:59.883Z,75.22
2018-04-15T00:02:59.883Z,75.22
2018-04-15T00:04:53.356Z,74.84
2018-04-15T00:05:52.805Z,74.55
2018-04-15T00:07:45.723Z,74.17
2018-04-15T00:08:45.727Z,73.88
2018-04-15T00:10:38.651Z,74.08
2018-04-15T00:11:38.649Z,74.17
2018-04-15T00:13:31.591Z,74.27
2018-04-15T00:14:31.579Z,74.46
2018-04-15T00:16:25.049Z,73.98
2018-04-15T00:17:24.506Z,73.60
2018-04-15T00:19:17.446Z,73.88
2018-04-15T00:20:17.426Z,74.55
2018-04-15T00:22:10.363Z,74.27
2018-04-15T00:23:10.354Z,74.08
2018-04-15T00:25:03.262Z,75.03
2018-04-15T00:26:03.273Z,74.74
2018-04-15T00:27:56.193Z,74.37
2018-04-15T00:28:56.197Z,73.98
2018-04-15T00:30:49.095Z,74.08
2018-04-15T00:31:49.118Z,74.55
2018-04-15T00:33:42.041Z,74.65
2018-04-15T00:34:42.039Z,74.74
2018-04-15T00:36:34.941Z,74.55
2018-04-15T00:37:34.964Z,74.74
2018-04-15T00:39:27.881Z,74.93
2018-04-15T00:40:27.883Z,74.93
2018-04-15T00:42:20.873Z,75.22
2018-04-15T00:43:20.807Z,75.03
2018-04-15T00:45:13.704Z,75.22
2018-04-15T00:46:13.741Z,75.60
2018-04-15T00:48:06.647Z,75.51
2018-04-15T00:49:06.649Z,75.89
2018-04-15T00:50:59.554Z,75.79
2018-04-15T00:51:59.585Z,76.18
2018-04-15T00:53:52.492Z,75.98
2018-04-15T00:54:52.512Z,75.79
2018-04-15T00:56:45.966Z,76.18
2018-04-15T00:57:45.421Z,76.18
2018-04-15T00:59:38.334Z,76.84
2018-04-15T01:00:38.335Z,76.27
2018-04-15T01:02:31.259Z,77.57
2018-04-15T01:03:31.260Z,77.00
2018-04-15T01:05:24.190Z,76.90
2018-04-15T01:06:24.210Z,77.09
2018-04-15T01:08:17.130Z,77.47
2018-04-15T01:09:17.135Z,77.67
2018-04-15T01:11:10.036Z,77.76
2018-04-15T01:12:10.057Z,77.47
2018-04-15T01:14:02.985Z,77.38
2018-04-15T01:15:02.981Z,77.38
2018-04-15T01:16:55.880Z,77.38
2018-04-15T01:17:55.903Z,77.57
2018-04-15T01:19:48.902Z,77.42
2018-04-15T01:20:48.823Z,77.61
2018-04-15T01:22:41.742Z,77.47
2018-04-15T01:23:41.741Z,77.28
2018-04-15T01:25:34.647Z,77.95
2018-04-15T01:26:34.668Z,77.86
2018-04-15T01:28:27.586Z,78.62
2018-04-15T01:29:27.583Z,78.52
2018-04-15T01:31:20.491Z,78.72
2018-04-15T01:32:20.509Z,78.81
2018-04-15T01:34:13.429Z,79.86
2018-04-15T01:35:13.430Z,79.67
2018-04-15T01:37:06.329Z,79.48
2018-04-15T01:38:06.349Z,79.48
2018-04-15T01:39:59.840Z,79.67
2018-04-15T01:40:59.272Z,79.67
2018-04-15T01:42:52.172Z,79.77
2018-04-15T01:43:52.195Z,79.77
2018-04-15T01:45:45.111Z,79.96
2018-04-15T01:46:45.116Z,79.19
2018-04-15T01:48:38.033Z,78.72
2018-04-15T01:49:38.037Z,79.00
2018-04-15T01:51:30.943Z,79.14
2018-04-15T01:52:30.963Z,78.91
2018-04-15T01:54:23.952Z,79.00
2018-04-15T01:55:23.885Z,79.19
2018-04-15T01:57:16.779Z,79.23
2018-04-15T01:58:16.802Z,79.19
2018-04-15T02:00:10.293Z,78.56
2018-04-15T02:01:09.729Z,78.47
2018-04-15T02:03:02.627Z,78.75
2018-04-15T02:04:02.649Z,78.75
2018-04-15T02:05:55.567Z,79.14
2018-04-15T02:06:55.570Z,79.71
2018-04-15T02:08:48.496Z,79.23
2018-04-15T02:09:48.494Z,79.23
2018-04-15T02:11:41.395Z,79.04
2018-04-15T02:12:41.416Z,79.23
2018-04-15T02:14:34.423Z,78.94
2018-04-15T02:15:34.340Z,79.04
2018-04-15T02:17:27.239Z,78.56
2018-04-15T02:18:27.261Z,78.18
2018-04-15T02:20:20.203Z,77.99
2018-04-15T02:21:20.186Z,77.99
2018-04-15T02:23:13.109Z,78.47
2018-04-15T02:24:13.109Z,77.80
2018-04-15T02:26:07.221Z,77.99
2018-04-15T02:27:07.226Z,78.28
2018-04-15T02:29:00.143Z,78.18
2018-04-15T02:30:00.148Z,78.66
2018-04-15T02:31:53.051Z,78.75
2018-04-15T02:32:53.069Z,77.80
2018-04-15T02:34:45.991Z,77.99
2018-04-15T02:35:45.995Z,78.09
2018-04-15T02:37:38.897Z,78.47
2018-04-15T02:38:38.917Z,78.81
2018-04-15T02:40:31.841Z,78.72
2018-04-15T02:41:31.842Z,78.75
2018-04-15T02:43:24.745Z,79.19
2018-04-15T02:44:24.765Z,79.23
2018-04-15T02:46:17.684Z,79.86
2018-04-15T02:47:17.690Z,79.77
2018-04-15T02:49:10.609Z,79.77
2018-04-15T02:50:10.608Z,79.96
2018-04-15T02:52:03.513Z,79.86
2018-04-15T02:53:03.537Z,80.33
2018-04-15T02:54:56.658Z,80.28
2018-04-15T02:55:56.664Z,80.33
2018-04-15T02:57:49.560Z,79.99
2018-04-15T02:58:49.598Z,80.19
2018-04-15T03:00:42.502Z,80.66
2018-04-15T03:01:42.521Z,80.47
2018-04-15T03:03:35.408Z,80.38
2018-04-15T03:04:35.434Z,79.90
2018-04-15T03:06:28.347Z,80.09
2018-04-15T03:07:28.352Z,79.90
2018-04-15T03:09:21.288Z,79.80
2018-04-15T03:10:21.294Z,79.99
2018-04-15T03:12:14.269Z,80.19
2018-04-15T03:13:14.234Z,80.19
2018-04-15T03:15:07.153Z,80.19
2018-04-15T03:16:07.159Z,80.19
2018-04-15T03:18:00.130Z,80.28
2018-04-15T03:19:00.077Z,80.57
2018-04-15T03:20:52.996Z,81.52
2018-04-15T03:21:53.003Z,82.00
2018-04-15T03:23:45.898Z,82.19
2018-04-15T03:24:45.920Z,82.09
2018-04-15T03:26:38.841Z,83.14
2018-04-15T03:27:38.844Z,82.86
2018-04-15T03:29:31.836Z,83.43
2018-04-15T03:30:31.768Z,83.34
2018-04-15T03:32:24.674Z,83.43
2018-04-15T03:33:24.696Z,82.95
2018-04-15T03:35:17.610Z,83.58
2018-04-15T03:36:17.614Z,83.48
2018-04-15T03:38:10.514Z,83.91
2018-04-15T03:39:10.535Z,84.00
2018-04-15T03:41:03.458Z,83.91
2018-04-15T03:42:03.463Z,83.87
2018-04-15T03:43:56.402Z,84.16
2018-04-15T03:44:56.383Z,84.39
2018-04-15T03:46:49.308Z,84.77
2018-04-15T03:47:49.309Z,84.53
2018-04-15T03:49:42.942Z,85.01
2018-04-15T03:50:42.232Z,85.01
2018-04-15T03:52:35.129Z,85.11
2018-04-15T03:53:35.151Z,84.92
2018-04-15T03:55:28.073Z,85.11
2018-04-15T03:56:28.074Z,85.01
2018-04-15T03:58:20.972Z,85.01
2018-04-15T03:59:20.996Z,85.49
2018-04-15T04:01:13.916Z,85.21
2018-04-15T04:02:13.919Z,85.30
2018-04-15T04:04:06.830Z,85.49
2018-04-15T04:05:06.846Z,86.16
2018-04-15T04:06:59.767Z,86.44
2018-04-15T04:07:59.771Z,85.97
2018-04-15T04:09:52.691Z,86.06
2018-04-15T04:10:52.694Z,86.25
2018-04-15T04:12:45.691Z,86.44
2018-04-15T04:13:45.619Z,86.73
2018-04-15T04:15:38.555Z,86.92
2018-04-15T04:16:38.571Z,86.44
2018-04-15T04:18:31.448Z,87.21
2018-04-15T04:19:31.463Z,86.63
2018-04-15T04:21:24.390Z,86.73
2018-04-15T04:22:24.386Z,86.92
2018-04-15T04:24:17.285Z,86.92
2018-04-15T04:25:17.309Z,87.11
2018-04-15T04:27:10.245Z,86.92
2018-04-15T04:28:10.231Z,87.21
2018-04-15T04:30:03.172Z,88.07
2018-04-15T04:31:03.154Z,87.11
2018-04-15T04:32:56.065Z,87.68
2018-04-15T04:33:56.092Z,87.68
2018-04-15T04:35:49.007Z,87.68
2018-04-15T04:36:49.008Z,87.11
2018-04-15T04:38:41.908Z,87.97
2018-04-15T04:39:41.930Z,86.92
2018-04-15T04:41:34.852Z,87.78
2018-04-15T04:42:34.858Z,87.49
2018-04-15T04:44:27.755Z,87.59
2018-04-15T04:45:27.781Z,87.59
2018-04-15T04:47:20.697Z,87.78
2018-04-15T04:48:20.706Z,87.78
2018-04-15T04:50:13.621Z,88.16
2018-04-15T04:51:13.642Z,88.26
2018-04-15T04:53:06.533Z,88.83
2018-04-15T04:54:06.551Z,88.73
2018-04-15T04:55:59.490Z,88.64
2018-04-15T04:56:59.509Z,88.54
2018-04-15T04:58:52.389Z,88.64
2018-04-15T04:59:52.415Z,88.54
2018-04-15T05:01:45.332Z,88.73
2018-04-15T05:02:45.336Z,89.12
2018-04-15T05:04:38.260Z,89.59
2018-04-15T05:05:38.281Z,90.07
2018-04-15T05:07:31.277Z,89.93
2018-04-15T05:08:31.223Z,89.88
2018-04-15T05:10:25.145Z,90.22
2018-04-15T05:11:25.151Z,89.74
2018-04-15T05:13:18.055Z,89.69
2018-04-15T05:14:18.081Z,89.69
2018-04-15T05:16:10.997Z,90.98
2018-04-15T05:17:11.049Z,90.79
2018-04-15T05:19:06.617Z,90.41
2018-04-15T05:20:03.923Z,90.73
2018-04-15T05:21:56.913Z,90.64
2018-04-15T05:22:56.842Z,90.55
2018-04-15T05:24:50.314Z,90.45
2018-04-15T05:25:49.800Z,90.64
2018-04-15T05:27:42.729Z,90.26
2018-04-15T05:28:42.739Z,89.78
2018-04-15T05:30:35.725Z,89.59
2018-04-15T05:31:35.690Z,89.69
2018-04-15T05:33:28.601Z,89.50
2018-04-15T05:34:28.641Z,90.36
2018-04-15T05:36:21.570Z,90.17
2018-04-15T05:37:21.577Z,90.17
2018-04-15T05:39:15.346Z,90.26
2018-04-15T05:40:15.373Z,90.45
2018-04-15T05:42:08.318Z,90.55
2018-04-15T05:43:08.322Z,90.64
2018-04-15T05:45:01.223Z,91.12
2018-04-15T05:46:01.243Z,91.50
2018-04-15T05:47:54.174Z,91.17
2018-04-15T05:48:54.174Z,91.78
2018-04-15T05:50:47.099Z,91.60
2018-04-15T05:51:47.103Z,91.50
2018-04-15T05:53:40.013Z,91.60
2018-04-15T05:54:40.037Z,91.41
2018-04-15T05:56:32.952Z,91.50
2018-04-15T05:57:32.953Z,91.31
2018-04-15T05:59:26.941Z,91.50
2018-04-15T06:00:26.870Z,91.50
2018-04-15T06:02:19.788Z,91.93
2018-04-15T06:03:19.819Z,92.03
2018-04-15T06:05:12.711Z,91.46
2018-04-15T06:06:12.720Z,92.17
2018-04-15T06:08:05.632Z,91.50
2018-04-15T06:09:05.636Z,91.78
2018-04-15T06:10:58.555Z,91.88
2018-04-15T06:11:58.569Z,91.69
2018-04-15T06:13:51.459Z,91.69
2018-04-15T06:14:51.532Z,91.78
2018-04-15T06:16:44.399Z,92.17
2018-04-15T06:17:44.403Z,91.50
2018-04-15T06:19:37.304Z,91.41
2018-04-15T06:20:37.326Z,91.41
2018-04-15T06:22:30.244Z,91.21
2018-04-15T06:23:30.247Z,91.69
2018-04-15T06:25:23.178Z,91.98
2018-04-15T06:26:23.190Z,91.88
2018-04-15T06:28:16.272Z,92.46
2018-04-15T06:29:16.279Z,92.55
2018-04-15T06:31:09.347Z,93.65
2018-04-15T06:32:09.351Z,93.36
2018-04-15T06:34:02.251Z,93.93
2018-04-15T06:35:02.272Z,94.22
2018-04-15T06:36:55.237Z,95.32
2018-04-15T06:37:55.201Z,95.75
2018-04-15T06:39:48.272Z,95.56
2018-04-15T06:40:48.302Z,95.75
2018-04-15T06:42:41.212Z,96.03
2018-04-15T06:43:41.217Z,96.41
2018-04-15T06:45:34.282Z,97.08
2018-04-15T06:46:34.304Z,96.37
2018-04-15T06:48:27.378Z,96.66
2018-04-15T06:49:27.381Z,96.70
2018-04-15T06:51:20.304Z,96.80
2018-04-15T06:52:20.303Z,97.56
2018-04-15T06:54:13.371Z,97.61
2018-04-15T06:55:13.383Z,97.37
2018-04-15T06:57:06.303Z,97.42
2018-04-15T06:58:06.304Z,97.13
2018-04-15T06:59:59.776Z,97.22
2018-04-15T07:00:59.232Z,96.66
2018-04-15T07:02:52.146Z,96.94
2018-04-15T07:03:52.151Z,96.84
2018-04-15T07:05:45.051Z,96.37
2018-04-15T07:06:45.075Z,96.46
2018-04-15T07:08:37.993Z,96.51
2018-04-15T07:09:38.061Z,96.89
2018-04-15T07:11:30.913Z,95.75
2018-04-15T07:12:30.915Z,96.13
2018-04-15T07:14:23.815Z,95.84
2018-04-15T07:15:23.839Z,95.84
2018-04-15T07:17:16.919Z,95.56
2018-04-15T07:18:16.921Z,95.84
2018-04-15T07:20:09.890Z,96.13
2018-04-15T07:21:09.840Z,95.65
2018-04-15T07:23:02.779Z,95.65
2018-04-15T07:24:02.786Z,95.94
2018-04-15T07:25:55.689Z,95.61
2018-04-15T07:26:55.710Z,95.51
2018-04-15T07:28:48.638Z,95.32
2018-04-15T07:29:48.647Z,94.74
2018-04-15T07:31:41.566Z,94.27
2018-04-15T07:32:41.565Z,94.27
2018-04-15T07:34:34.471Z,93.79
2018-04-15T07:35:34.494Z,93.79
2018-04-15T07:37:27.483Z,94.36
2018-04-15T07:38:27.415Z,94.07
2018-04-15T07:40:20.326Z,94.17
2018-04-15T07:41:20.360Z,94.84
2018-04-15T07:43:13.271Z,95.32
2018-04-15T07:44:13.279Z,94.84
2018-04-15T07:46:06.178Z,95.12
2018-04-15T07:47:06.203Z,95.51
2018-04-15T07:48:59.126Z,95.98
2018-04-15T07:49:59.126Z,96.08
2018-04-15T07:51:52.052Z,96.17
2018-04-15T07:52:52.053Z,96.37
2018-04-15T07:54:44.957Z,95.98
2018-04-15T07:55:44.982Z,95.89
2018-04-15T07:57:38.060Z,96.27
2018-04-15T07:58:38.055Z,96.08
2018-04-15T08:00:30.961Z,96.94
2018-04-15T08:01:30.980Z,96.75
2018-04-15T08:03:23.903Z,97.03
2018-04-15T08:04:23.906Z,96.84
2018-04-15T08:06:16.813Z,97.32
2018-04-15T08:07:16.835Z,96.99
2018-04-15T08:09:09.759Z,97.08
2018-04-15T08:10:09.763Z,97.28
2018-04-15T08:12:02.685Z,96.99
2018-04-15T08:13:02.733Z,97.37
2018-04-15T08:14:55.752Z,97.18
2018-04-15T08:15:55.776Z,97.13
2018-04-15T08:17:48.854Z,97.37
2018-04-15T08:18:48.856Z,97.75
2018-04-15T08:20:41.767Z,97.66
2018-04-15T08:21:41.886Z,98.04
2018-04-15T08:23:34.904Z,97.75
2018-04-15T08:24:34.864Z,97.66
2018-04-15T08:26:27.978Z,98.04
2018-04-15T08:27:28.002Z,97.61
2018-04-15T08:29:21.441Z,96.47
2018-04-15T08:30:21.452Z,97.13
2018-04-15T08:32:14.575Z,96.66
2018-04-15T08:33:14.526Z,95.98
2018-04-15T08:35:07.659Z,95.98
2018-04-15T08:36:07.687Z,95.89
2018-04-15T08:38:00.860Z,95.70
2018-04-15T08:39:00.843Z,97.08
2018-04-15T08:40:53.991Z,96.51
2018-04-15T08:41:54.067Z,96.13
2018-04-15T08:43:47.432Z,96.61
2018-04-15T08:44:47.439Z,96.32
2018-04-15T08:46:40.343Z,96.89
2018-04-15T08:47:40.368Z,95.65
2018-04-15T08:49:33.472Z,93.98
2018-04-15T08:50:33.476Z,93.98
2018-04-15T08:52:26.404Z,93.79
2018-04-15T08:53:26.410Z,93.74
2018-04-15T08:55:19.319Z,92.11
2018-04-15T08:56:19.344Z,93.74
2018-04-15T08:58:12.335Z,93.35
2018-04-15T08:59:12.270Z,93.64
2018-04-15T09:01:05.179Z,94.26
2018-04-15T09:02:05.201Z,94.74
2018-04-15T09:03:58.132Z,93.12
2018-04-15T09:04:58.144Z,93.30
2018-04-15T09:06:51.045Z,92.30
2018-04-15T09:07:51.070Z,91.72
2018-04-15T09:09:45.053Z,91.15
2018-04-15T09:10:45.001Z,90.00
2018-04-15T09:12:38.016Z,89.81
2018-04-15T09:13:37.936Z,90.48
2018-04-15T09:15:31.061Z,89.66
2018-04-15T09:16:31.089Z,89.18
2018-04-15T09:18:24.011Z,89.23
2018-04-15T09:19:24.018Z,89.28
2018-04-15T09:21:16.929Z,89.09
2018-04-15T09:22:16.955Z,89.09
2018-04-15T09:24:10.955Z,86.31
2018-04-15T09:25:10.897Z,85.93
2018-04-15T09:27:03.873Z,86.60
2018-04-15T09:28:03.854Z,87.31
2018-04-15T09:29:56.790Z,87.16
2018-04-15T09:30:56.795Z,85.82
2018-04-15T09:32:49.723Z,84.91
2018-04-15T09:33:49.736Z,83.65
2018-04-15T09:35:42.648Z,83.08
2018-04-15T09:36:42.676Z,82.98
2018-04-15T09:38:35.836Z,79.34
2018-04-15T09:39:35.847Z,79.63
2018-04-15T09:41:28.759Z,80.78
2018-04-15T09:42:28.787Z,81.93
2018-04-15T09:44:21.891Z,82.31
2018-04-15T09:45:21.876Z,81.10
2018-04-15T09:47:14.804Z,81.15
2018-04-15T09:48:14.813Z,80.47
2018-04-15T09:50:07.743Z,78.94
2018-04-15T09:51:07.760Z,77.73
2018-04-15T09:53:00.685Z,76.09
2018-04-15T09:54:00.693Z,75.42
2018-04-15T09:55:53.605Z,74.17
2018-04-15T09:56:53.638Z,75.57
2018-04-15T09:58:46.564Z,77.25
2018-04-15T09:59:46.574Z,78.11
2018-04-15T10:01:39.489Z,77.38
2018-04-15T10:02:39.520Z,76.61
2018-04-15T10:04:32.632Z,75.17
2018-04-15T10:05:32.643Z,73.15
2018-04-15T10:07:25.579Z,70.94
2018-04-15T10:08:25.608Z,70.65
2018-04-15T10:10:21.458Z,72.06
2018-04-15T10:11:18.550Z,72.25
2018-04-15T10:13:11.483Z,73.79
2018-04-15T10:14:11.497Z,73.27
2018-04-15T10:16:04.406Z,76.00
2018-04-15T10:17:04.432Z,75.71
2018-04-15T10:18:58.620Z,73.41
2018-04-15T10:19:58.657Z,73.83
2018-04-15T10:21:51.537Z,73.63
2018-04-15T10:22:51.565Z,73.06
2018-04-15T10:24:44.495Z,71.61
2018-04-15T10:25:44.502Z,71.04
2018-04-15T10:27:37.414Z,70.94
2018-04-15T10:28:37.443Z,71.04
2018-04-15T10:30:30.871Z,71.33
2018-04-15T10:31:30.877Z,70.75
2018-04-15T10:33:23.812Z,71.33
2018-04-15T10:34:23.818Z,69.02
2018-04-15T10:36:17.878Z,71.33
2018-04-15T10:37:17.921Z,69.06
2018-04-15T10:39:10.837Z,70.94
2018-04-15T10:40:10.844Z,69.21
2018-04-15T10:42:04.345Z,72.19
2018-04-15T10:43:03.813Z,73.28
2018-04-15T10:44:56.723Z,72.52
2018-04-15T10:45:56.751Z,70.30
2018-04-15T10:47:49.688Z,67.90
2018-04-15T10:48:49.692Z,67.32
2018-04-15T10:50:42.674Z,67.22
2018-04-15T10:51:42.642Z,66.65
2018-04-15T10:53:35.903Z,69.92
2018-04-15T10:54:35.752Z,70.21
2018-04-15T10:56:28.886Z,71.49
2018-04-15T10:57:28.882Z,70.53
2018-04-15T10:59:22.033Z,66.14
2018-04-15T11:00:22.041Z,64.95
2018-04-15T11:02:15.174Z,67.68
2018-04-15T11:03:15.201Z,66.71
2018-04-15T11:05:08.351Z,64.59
2018-04-15T11:06:08.370Z,65.17
2018-04-15T11:08:01.281Z,67.23
2018-04-15T11:09:01.307Z,67.61
2018-04-15T11:10:54.462Z,66.36
2018-04-15T11:11:54.468Z,64.25
2018-04-15T11:13:48.554Z,65.88
2018-04-15T11:14:48.564Z,64.56
2018-04-15T11:16:41.681Z,64.08
2018-04-15T11:17:41.709Z,63.12
2018-04-15T11:19:35.142Z,60.30
2018-04-15T11:20:35.200Z,60.58
2018-04-15T11:22:28.065Z,60.49
2018-04-15T11:23:28.096Z,60.65
2018-04-15T11:25:21.026Z,61.77
2018-04-15T11:26:21.034Z,62.74
2018-04-15T11:28:13.956Z,63.92
2018-04-15T11:29:13.980Z,64.50
2018-04-15T11:31:07.480Z,64.59
2018-04-15T11:32:07.426Z,65.08
2018-04-15T11:34:00.549Z,65.85
2018-04-15T11:35:00.559Z,63.34
2018-04-15T11:36:53.493Z,64.98
2018-04-15T11:38:00.629Z,65.37
2018-04-15T11:39:46.437Z,64.02
2018-04-15T11:40:46.446Z,64.40
2018-04-15T11:42:39.362Z,64.21
2018-04-15T11:43:39.394Z,61.61
2018-04-15T11:45:32.327Z,61.71
2018-04-15T11:46:32.337Z,61.71
2018-04-15T11:48:25.247Z,62.00
2018-04-15T11:49:25.282Z,63.15
2018-04-15T11:51:18.233Z,63.25
2018-04-15T11:52:18.222Z,62.19
2018-04-15T11:54:11.137Z,59.97
2018-04-15T11:55:11.169Z,61.22
2018-04-15T11:57:04.288Z,61.39
2018-04-15T11:58:04.296Z,62.16
2018-04-15T11:59:57.231Z,63.73
2018-04-15T12:00:57.238Z,63.44
2018-04-15T12:02:50.383Z,62.77
2018-04-15T12:03:50.408Z,62.22
2018-04-15T12:05:43.350Z,62.03
2018-04-15T12:06:43.361Z,61.16
2018-04-15T12:08:36.274Z,60.03
2018-04-15T12:09:36.312Z,60.32
2018-04-15T12:11:29.284Z,60.61
2018-04-15T12:12:29.271Z,60.13
2018-04-15T12:14:22.185Z,61.58
2018-04-15T12:15:22.211Z,61.87
2018-04-15T12:17:15.217Z,59.39
2018-04-15T12:18:15.164Z,57.05
2018-04-15T12:20:08.104Z,57.34
2018-04-15T12:21:08.105Z,57.79
2018-04-15T12:23:01.021Z,59.52
2018-04-15T12:24:01.058Z,59.23
2018-04-15T12:25:53.990Z,60.49
2018-04-15T12:26:54.001Z,60.30
2018-04-15T12:28:46.915Z,60.52
2018-04-15T12:29:46.951Z,57.79
2018-04-15T12:31:39.893Z,58.47
2018-04-15T12:32:39.902Z,59.52
2018-04-15T12:34:32.818Z,59.81
2018-04-15T12:35:32.846Z,59.52
2018-04-15T12:37:25.792Z,59.23
2018-04-15T12:38:25.799Z,59.23
2018-04-15T12:40:18.717Z,59.45
2018-04-15T12:41:18.751Z,59.94
2018-04-15T12:43:11.727Z,59.27
2018-04-15T12:44:11.730Z,59.84
2018-04-15T12:46:04.682Z,57.24
2018-04-15T12:47:04.728Z,57.92
2018-04-15T12:48:57.699Z,59.84
2018-04-15T12:49:57.651Z,59.27
2018-04-15T12:51:50.598Z,59.45
2018-04-15T12:52:50.586Z,58.20
2018-04-15T12:54:44.017Z,58.14
2018-04-15T12:55:44.046Z,58.23
2018-04-15T12:57:38.511Z,58.23
2018-04-15T12:58:38.507Z,59.30
2018-04-15T13:00:36.493Z,59.42
2018-04-15T13:01:36.465Z,58.17
2018-04-15T13:03:30.900Z,56.01
2018-04-15T13:04:30.913Z,56.40
2018-04-15T13:06:24.356Z,58.65
2018-04-15T13:07:24.368Z,58.36
2018-04-15T13:09:17.784Z,56.04
2018-04-15T13:10:17.816Z,55.85
2018-04-15T13:12:11.253Z,56.07
2018-04-15T13:13:11.260Z,55.01
2018-04-15T13:15:04.677Z,54.14
2018-04-15T13:16:04.707Z,53.44
2018-04-15T13:17:58.184Z,53.44
2018-04-15T13:18:58.194Z,54.96
2018-04-15T13:20:51.624Z,56.98
2018-04-15T13:21:51.640Z,57.56
2018-04-15T13:23:45.085Z,57.10
2018-04-15T13:24:45.089Z,55.94
2018-04-15T13:26:38.574Z,56.04
2018-04-15T13:27:38.533Z,56.33
2018-04-15T13:29:32.978Z,53.15
2018-04-15T13:30:32.990Z,52.95
2018-04-15T13:32:27.450Z,53.17
2018-04-15T13:33:27.439Z,53.37
2018-04-15T13:35:21.857Z,54.62
2018-04-15T13:36:21.901Z,55.13
2018-04-15T13:38:14.832Z,54.36
2018-04-15T13:39:14.846Z,53.49
2018-04-15T13:41:07.764Z,50.69
2018-04-15T13:42:07.792Z,50.69
2018-04-15T13:44:00.734Z,51.65
2018-04-15T13:45:00.748Z,51.65
2018-04-15T13:46:54.721Z,50.01
2018-04-15T13:47:54.700Z,51.15
2018-04-15T13:49:48.189Z,52.11
2018-04-15T13:50:48.149Z,51.05
2018-04-15T13:52:41.084Z,51.77
2018-04-15T13:53:41.096Z,52.33
2018-04-15T13:55:34.041Z,53.58
2018-04-15T13:56:34.050Z,53.39
2018-04-15T13:58:26.967Z,52.71
2018-04-15T13:59:26.997Z,53.29
2018-04-15T14:01:19.942Z,54.64
2018-04-15T14:02:19.957Z,55.02
2018-04-15T14:04:13.404Z,55.99
2018-04-15T14:05:13.437Z,55.89
2018-04-15T14:07:06.374Z,54.16
2018-04-15T14:08:06.380Z,53.77
2018-04-15T14:09:59.299Z,55.24
2018-04-15T14:10:59.326Z,54.09
2018-04-15T14:12:52.266Z,52.64
2018-04-15T14:13:52.282Z,52.93
2018-04-15T14:15:46.380Z,52.93
2018-04-15T14:16:46.421Z,52.25
2018-04-15T14:18:39.839Z,52.83
2018-04-15T14:19:39.307Z,52.64
2018-04-15T14:21:32.491Z,52.16
2018-04-15T14:22:32.456Z,51.10
2018-04-15T14:24:25.418Z,53.41
2018-04-15T14:25:25.425Z,52.73
2018-04-15T14:27:18.350Z,52.67
2018-04-15T14:28:18.363Z,52.83
2018-04-15T14:30:11.297Z,52.35
2018-04-15T14:31:11.306Z,53.48
2018-04-15T14:33:04.245Z,53.58
2018-04-15T14:34:04.254Z,54.93
2018-04-15T14:35:57.311Z,53.96
2018-04-15T14:36:57.218Z,54.06
2018-04-15T14:38:50.140Z,53.39
2018-04-15T14:39:50.169Z,53.39
2018-04-15T14:41:43.128Z,54.93
2018-04-15T14:42:43.134Z,54.06
2018-04-15T14:44:36.612Z,53.67
2018-04-15T14:45:36.596Z,54.25
2018-04-15T14:47:29.638Z,54.74
2018-04-15T14:48:29.646Z,54.06
2018-04-15T14:50:22.576Z,54.13
2018-04-15T14:51:22.606Z,54.16
2018-04-15T14:53:15.650Z,53.45
2018-04-15T14:54:15.658Z,54.80
2018-04-15T14:56:09.115Z,53.27
2018-04-15T14:57:09.124Z,53.84
2018-04-15T14:59:02.071Z,52.01
2018-04-15T15:00:02.183Z,53.27
2018-04-15T15:01:55.590Z,53.84
2018-04-15T15:02:55.599Z,53.36
2018-04-15T15:04:49.089Z,54.06
2018-04-15T15:05:49.115Z,53.00
2018-04-15T15:07:42.847Z,53.22
2018-04-15T15:08:42.684Z,53.13
2018-04-15T15:10:35.617Z,52.93
2018-04-15T15:11:35.639Z,53.13
2018-04-15T15:13:30.188Z,52.55
2018-04-15T15:14:30.166Z,52.33
2018-04-15T15:16:23.172Z,53.00
2018-04-15T15:17:23.183Z,53.09
2018-04-15T15:19:16.222Z,52.33
2018-04-15T15:20:16.238Z,52.91
2018-04-15T15:22:09.184Z,53.09
2018-04-15T15:23:09.191Z,52.61
2018-04-15T15:25:02.245Z,53.13
2018-04-15T15:26:02.250Z,52.13
2018-04-15T15:27:55.431Z,53.22
2018-04-15T15:28:55.320Z,53.13
2018-04-15T15:30:48.337Z,53.03
2018-04-15T15:31:48.364Z,51.39
2018-04-15T15:33:41.408Z,53.13
2018-04-15T15:34:41.504Z,51.87
2018-04-15T15:36:34.550Z,50.32
2018-04-15T15:37:34.562Z,51.10
2018-04-15T15:39:27.501Z,50.81
2018-04-15T15:40:27.530Z,51.20
2018-04-15T15:42:20.476Z,51.10
2018-04-15T15:43:20.489Z,50.81
2018-04-15T15:45:13.413Z,51.77
2018-04-15T15:46:13.446Z,51.39
2018-04-15T15:48:06.895Z,50.13
2018-04-15T15:49:06.904Z,50.42
2018-04-15T15:51:00.343Z,50.04
2018-04-15T15:52:00.371Z,50.23
2018-04-15T15:53:53.417Z,50.74
2018-04-15T15:54:53.426Z,50.04
2018-04-15T15:56:46.886Z,50.62
2018-04-15T15:57:46.904Z,50.04
2018-04-15T15:59:42.916Z,50.13
2018-04-15T16:00:42.943Z,51.10
2018-04-15T16:02:35.963Z,50.40
2018-04-15T16:03:35.974Z,51.17
2018-04-15T16:05:28.934Z,51.17
2018-04-15T16:06:28.972Z,50.78
2018-04-15T16:08:21.972Z,49.53
2018-04-15T16:09:22.003Z,50.11
2018-04-15T16:11:15.422Z,50.21
2018-04-15T16:12:15.526Z,50.69
2018-04-15T16:14:08.909Z,51.36
2018-04-15T16:15:08.938Z,50.40
2018-04-15T16:17:05.303Z,50.69
2018-04-15T16:18:05.254Z,50.52
2018-04-15T16:19:58.792Z,50.04
2018-04-15T16:20:58.829Z,50.81
2018-04-15T16:22:53.328Z,51.17
2018-04-15T16:23:53.337Z,51.46
2018-04-15T16:25:46.758Z,53.09
2018-04-15T16:26:46.879Z,53.48
2018-04-15T16:28:39.822Z,52.33
2018-04-15T16:29:39.828Z,52.04
2018-04-15T16:31:33.425Z,52.35
2018-04-15T16:32:33.316Z,51.77
2018-04-15T16:34:26.835Z,53.03
2018-04-15T16:35:26.863Z,52.45
2018-04-15T16:37:20.367Z,50.98
2018-04-15T16:38:20.419Z,51.75
2018-04-15T16:40:13.810Z,52.23
2018-04-15T16:41:13.873Z,52.13
2018-04-15T16:43:07.373Z,51.65
2018-04-15T16:44:07.381Z,52.30
2018-04-15T16:46:00.901Z,53.27
2018-04-15T16:47:00.930Z,53.36
2018-04-15T16:48:53.993Z,53.17
2018-04-15T16:49:53.985Z,52.97
2018-04-15T16:51:46.937Z,53.27
2018-04-15T16:52:46.940Z,53.45
2018-04-15T16:54:40.377Z,53.17
2018-04-15T16:55:40.406Z,53.23
2018-04-15T16:57:33.862Z,53.74
2018-04-15T16:58:33.871Z,53.17
2018-04-15T17:00:27.365Z,52.97
2018-04-15T17:01:27.335Z,53.14
2018-04-15T17:03:20.289Z,53.84
2018-04-15T17:04:20.320Z,52.97
2018-04-15T17:06:14.779Z,53.55
2018-04-15T17:07:14.781Z,53.14
2018-04-15T17:09:07.858Z,53.05
2018-04-15T17:10:07.906Z,53.33
2018-04-15T17:12:01.298Z,53.33
2018-04-15T17:13:01.308Z,53.23
2018-04-15T17:14:54.353Z,53.33
2018-04-15T17:15:54.358Z,53.53
2018-04-15T17:17:47.302Z,53.69
2018-04-15T17:18:47.325Z,53.98
2018-04-15T17:20:40.801Z,53.81
2018-04-15T17:21:40.788Z,54.30
2018-04-15T17:23:34.306Z,53.78
2018-04-15T17:24:34.267Z,54.36
2018-04-15T17:26:27.281Z,54.75
2018-04-15T17:27:27.350Z,55.04
2018-04-15T17:29:20.775Z,54.85
2018-04-15T17:30:20.764Z,54.85
2018-04-15T17:32:13.713Z,54.75
2018-04-15T17:33:13.717Z,54.65
2018-04-15T17:35:06.661Z,54.65
2018-04-15T17:36:06.720Z,54.85
2018-04-15T17:37:59.671Z,54.65
2018-04-15T17:38:59.633Z,55.52
2018-04-15T17:40:52.579Z,55.52
2018-04-15T17:41:52.585Z,55.81
2018-04-15T17:43:45.607Z,55.33
2018-04-15T17:44:45.583Z,55.62
2018-04-15T17:46:38.492Z,56.00
2018-04-15T17:47:38.519Z,55.81
2018-04-15T17:49:31.955Z,57.06
2018-04-15T17:50:31.957Z,56.96
2018-04-15T17:52:25.004Z,57.06
2018-04-15T17:53:25.048Z,57.06
2018-04-15T17:55:18.088Z,57.64
2018-04-15T17:56:18.142Z,57.73
2018-04-15T17:58:11.625Z,58.40
2018-04-15T17:59:11.646Z,58.60
2018-04-15T18:01:04.584Z,59.53
2018-04-15T18:02:04.610Z,59.63
2018-04-15T18:03:58.456Z,59.53
2018-04-15T18:04:58.463Z,60.21
2018-04-15T18:06:51.390Z,60.78
2018-04-15T18:07:51.417Z,60.39
2018-04-15T18:09:44.370Z,60.66
2018-04-15T18:10:44.373Z,60.85
2018-04-15T18:12:37.927Z,60.27
2018-04-15T18:13:37.888Z,61.33
2018-04-15T18:15:31.312Z,62.29
2018-04-15T18:16:31.303Z,61.61
2018-04-15T18:18:24.284Z,62.00
2018-04-15T18:19:24.310Z,61.71
2018-04-15T18:21:17.193Z,62.19
2018-04-15T18:22:17.213Z,61.78
2018-04-15T18:24:10.184Z,61.97
2018-04-15T18:25:10.176Z,61.78
2018-04-15T18:27:03.653Z,62.26
2018-04-15T18:28:03.249Z,63.02
2018-04-15T18:29:56.212Z,62.26
2018-04-15T18:30:56.216Z,63.12
2018-04-15T18:32:49.160Z,63.32
2018-04-15T18:33:49.133Z,63.41